METAR AND TAF INFORMATION
METAR FOR EDGS
ADDS - METARS form results

(1733 UTC 21 March 2019)
Data provider http://aviationweather.gov/metar/data/
 
METAR text: EDGS 211720Z VRB02KT CAVOK 13/02 Q1031
Conditions at: EDGS (SIEGERLAND , DE) observed 1720 UTC 21 March 2019
Temperature: 13.0°C (55°F)
Dewpoint: 2.0°C (36°F) [RH = 47%]
Pressure (altimeter): 30.44 inches Hg (1031.0 mb)
Winds: variable direction winds at 2 MPH (2 knots; 1.0 m/s)
Visibility: 6 or more miles (10+ km)
Ceiling: ceiling and visibility are OK
Clouds: unknown
Weather: no significant weather observed at this time

METAR text: EDGS 211650Z 05003KT CAVOK 14/03 Q1031
Conditions at: EDGS (SIEGERLAND , DE) observed 1650 UTC 21 March 2019
Temperature: 14.0°C (57°F)
Dewpoint: 3.0°C (37°F) [RH = 47%]
Pressure (altimeter): 30.44 inches Hg (1031.0 mb)
Winds: from the NE (50 degrees) at 3 MPH (3 knots; 1.5 m/s)
Visibility: 6 or more miles (10+ km)
Ceiling: ceiling and visibility are OK
Clouds: unknown
Weather: no significant weather observed at this time

Forecast for: EDGS (SIEGERLAND , DE)
Text: TAF EDGS 211700Z 2118/2203 VRB03KT CAVOK
Forecast period: 1800 UTC 21 March 2019 to 0300 UTC 22 March 2019
Forecast type: FROM: standard forecast or significant change
Winds: variable direction winds at 3 MPH (3 knots; 1.5 m/s)
Visibility: 6 or more miles 10+ km)
Ceiling: unknown
Clouds: missing
Weather: NSW  (no significant weather)

 AIRPORT MAP

 RUNWAY INFORMATION
Runway 04 Runway length 1640 ft Runway width 98 ft
Runway elevation 0 ft Runway displaced threshold 0 ft Runway heading 38
Runway 22 Runway length 1640 ft Runway width 98 ft
Runway elevation 0 ft Runway displaced threshold 0 ft Runway heading 218
Runway 13 Runway length 5315 ft Runway width 98 ft
Runway elevation 1961 ft Runway displaced threshold 0 ft Runway heading 128
Runway 31 Runway length 5315 ft Runway width 98 ft
Runway elevation 1928 ft Runway displaced threshold 0 ft Runway heading 308
Runway 13L Runway length 1969 ft Runway width 98 ft
Runway elevation 0 ft Runway displaced threshold 0 ft Runway heading 128
Runway 31R Runway length 1969 ft Runway width 98 ft
Runway elevation 0 ft Runway displaced threshold 0 ft Runway heading 308

 AIRPORT FREQUENCIES
Type AFIS Name INFO Frequency 120.375 MHZ
Type ATIS Name ATIS Frequency 128.625 MHZ
Type INFO Name LANGEN INF Frequency 123.525 MHZ
Type RDR Name LANGEN RAD Frequency 124.9 MHZ

 AIRPORT NEAR NAVIGATION AIDS
Type NDB Name Siegerland Frequency 489 KHZ
Type DME Name Siegerland Frequency 108050 KHZ



Powered by Virtual Airlines Manager [v2.6.2]